Time;durP1;ratioP1;P1;durP2;ratioP2;P2;SDS_P1;SDS_P2;PMS_P1;PMS_P2;Temp;Humidity;BMP_temperature;BMP_pressure;BME280_temperature;BME280_humidity;BME280_pressure;Samples;Min_cycle;Max_cycle;Signal;HPM_P1;HPM_P2
2022/01/01 00:01:33;;;;;;;4.23;2.73;;;9.00;99.90;;;;;;5057058;28;20204;-78
2022/01/01 00:03:59;;;;;;;4.43;3.40;;;9.00;99.90;;;;;;5057522;28;20168;-79
2022/01/01 00:06:24;;;;;;;5.10;3.10;;;9.00;99.90;;;;;;5058782;28;20507;-78
2022/01/01 00:08:50;;;;;;;4.13;2.90;;;9.00;99.90;;;;;;5058545;28;20194;-78
2022/01/01 00:11:16;;;;;;;4.03;3.07;;;8.90;99.90;;;;;;5057172;28;20175;-79
2022/01/01 00:13:41;;;;;;;5.63;3.07;;;9.00;99.90;;;;;;5055436;28;20189;-79
2022/01/01 00:16:10;;;;;;;3.90;3.10;;;9.00;99.90;;;;;;5057058;28;20182;-79
2022/01/01 00:18:36;;;;;;;4.30;3.10;;;8.90;99.90;;;;;;5056784;28;20194;-79
2022/01/01 00:21:03;;;;;;;9.43;3.13;;;8.90;99.90;;;;;;5054458;28;20202;-78
2022/01/01 00:23:28;;;;;;;3.83;3.07;;;8.90;99.90;;;;;;5056529;28;20182;-78
2022/01/01 00:25:54;;;;;;;3.50;2.57;;;8.90;99.90;;;;;;5055673;28;20180;-79
2022/01/01 00:28:20;;;;;;;4.13;2.80;;;8.90;99.90;;;;;;5055182;28;20205;-78
2022/01/01 00:30:45;;;;;;;5.20;3.10;;;8.80;99.90;;;;;;5055511;28;20181;-79
2022/01/01 00:33:11;;;;;;;3.63;2.80;;;8.80;99.90;;;;;;5055932;28;20174;-79
2022/01/01 00:35:38;;;;;;;3.90;2.80;;;8.80;99.90;;;;;;5057374;28;20176;-78
2022/01/01 00:38:03;;;;;;;6.17;2.93;;;8.80;99.90;;;;;;5056345;28;20220;-79
2022/01/01 00:40:29;;;;;;;3.43;2.10;;;8.80;99.90;;;;;;5056426;28;20636;-79
2022/01/01 00:42:55;;;;;;;3.57;2.50;;;8.80;99.90;;;;;;5059915;28;20175;-79
2022/01/01 00:45:21;;;;;;;2.93;2.23;;;8.70;99.90;;;;;;5063672;28;20166;-79
2022/01/01 00:47:47;;;;;;;3.83;2.30;;;8.80;99.90;;;;;;5062208;28;20190;-79
2022/01/01 00:50:13;;;;;;;3.90;2.77;;;8.70;99.90;;;;;;5068393;28;20193;-79
2022/01/01 00:52:38;;;;;;;3.87;2.50;;;8.70;99.90;;;;;;5062297;28;20216;-79
2022/01/01 00:55:04;;;;;;;2.90;2.53;;;8.70;99.90;;;;;;5064632;28;20175;-79
2022/01/01 00:57:30;;;;;;;4.67;2.67;;;8.70;99.90;;;;;;5067500;28;20265;-79
2022/01/01 00:59:56;;;;;;;4.13;2.47;;;8.70;99.90;;;;;;5067489;28;20185;-78
2022/01/01 01:02:21;;;;;;;3.17;2.40;;;8.70;99.90;;;;;;5059815;28;20198;-78
2022/01/01 01:04:47;;;;;;;3.70;2.53;;;8.70;99.90;;;;;;5058909;28;20211;-79
2022/01/01 01:07:13;;;;;;;2.73;2.10;;;8.60;99.90;;;;;;5060408;28;20193;-78
2022/01/01 01:09:38;;;;;;;3.37;2.67;;;8.50;99.90;;;;;;5059121;28;20182;-78
2022/01/01 01:12:04;;;;;;;3.40;2.23;;;8.40;99.90;;;;;;5060713;28;20185;-78
2022/01/01 01:14:39;;;;;;;2.77;2.23;;;8.30;99.90;;;;;;5058697;28;20177;-78
2022/01/01 01:17:05;;;;;;;2.63;2.23;;;8.20;99.90;;;;;;5064832;28;20189;-79
2022/01/01 01:19:31;;;;;;;2.80;2.33;;;8.10;99.90;;;;;;5059912;28;20188;-78
2022/01/01 01:21:58;;;;;;;3.47;2.20;;;7.90;99.90;;;;;;5059770;28;20202;-79
2022/01/01 01:24:25;;;;;;;4.90;2.47;;;7.80;99.90;;;;;;5060681;28;20177;-78
2022/01/01 01:26:52;;;;;;;3.37;2.47;;;7.60;99.90;;;;;;5058883;28;20575;-78
2022/01/01 01:29:19;;;;;;;4.53;2.90;;;7.50;99.90;;;;;;5059207;28;20568;-79
2022/01/01 01:31:46;;;;;;;3.43;2.57;;;7.40;99.90;;;;;;5060538;28;20173;-79
2022/01/01 01:34:12;;;;;;;2.80;2.50;;;7.30;99.90;;;;;;5060519;28;20181;-79
2022/01/01 01:36:38;;;;;;;2.97;2.30;;;7.10;99.90;;;;;;5060712;28;20177;-79
2022/01/01 01:39:04;;;;;;;4.27;2.37;;;7.00;99.90;;;;;;5060712;28;20177;-79
2022/01/01 01:41:31;;;;;;;3.10;2.50;;;6.80;99.90;;;;;;5059214;28;20212;-78
2022/01/01 01:44:02;;;;;;;7.07;2.70;;;6.80;99.90;;;;;;5059791;28;20165;-78
2022/01/01 01:46:27;;;;;;;3.20;2.00;;;6.70;99.90;;;;;;5058721;28;20169;-79
2022/01/01 01:48:54;;;;;;;3.90;3.07;;;6.70;99.90;;;;;;5060151;28;20494;-78
2022/01/01 01:51:20;;;;;;;3.30;2.53;;;6.60;99.90;;;;;;5058256;28;20203;-79
2022/01/01 01:53:46;;;;;;;4.10;3.10;;;6.50;99.90;;;;;;5059090;28;20408;-79
2022/01/01 01:56:12;;;;;;;5.30;3.03;;;;;;;;;;5059091;28;20184;-78
2022/01/01 01:58:38;;;;;;;3.43;2.73;;;6.50;99.90;;;;;;5059534;28;20193;-78
2022/01/01 02:04:02;;;;;;;3.60;3.03;;;6.40;99.90;;;;;;5035676;28;20178;-78
2022/01/01 02:06:27;;;;;;;4.33;3.10;;;6.30;99.90;;;;;;5057054;28;20423;-78
2022/01/01 02:08:53;;;;;;;4.53;3.13;;;6.30;99.90;;;;;;5056688;28;20585;-78
2022/01/01 02:11:21;;;;;;;3.70;2.80;;;6.30;99.90;;;;;;5057540;28;20185;-78
2022/01/01 02:18:54;;;;;;;2.97;2.70;;;6.20;99.90;;;;;;5058423;28;20185;-78
2022/01/01 02:21:20;;;;;;;4.80;2.87;;;6.20;99.90;;;;;;5058454;28;20440;-78
2022/01/01 02:23:48;;;;;;;7.57;3.07;;;6.20;99.90;;;;;;5057362;28;20792;-78
2022/01/01 02:26:16;;;;;;;4.20;3.13;;;6.20;99.90;;;;;;5058759;28;20414;-79
2022/01/01 02:28:44;;;;;;;4.13;3.07;;;6.10;99.90;;;;;;5058653;28;20420;-78
2022/01/01 02:31:10;;;;;;;5.67;3.50;;;6.10;99.90;;;;;;5058049;28;20421;-78
2022/01/01 02:33:37;;;;;;;5.23;2.93;;;6.00;99.90;;;;;;5059862;28;20635;-78
2022/01/01 02:36:04;;;;;;;5.60;3.40;;;6.00;99.90;;;;;;5062317;28;20447;-78
2022/01/01 02:38:32;;;;;;;3.70;2.90;;;6.00;99.90;;;;;;5071821;28;20864;-78
2022/01/01 02:40:58;;;;;;;5.37;3.40;;;6.00;99.90;;;;;;5072677;28;20448;-78
2022/01/01 02:43:25;;;;;;;6.80;3.57;;;6.00;99.90;;;;;;5074095;28;20422;-78
2022/01/01 02:45:50;;;;;;;3.90;2.67;;;5.90;99.90;;;;;;5067962;28;20173;-79
2022/01/01 02:48:17;;;;;;;3.57;2.90;;;5.90;99.90;;;;;;5058458;28;20428;-79
2022/01/01 02:50:42;;;;;;;4.73;3.07;;;5.80;99.90;;;;;;5059359;28;20651;-78
2022/01/01 02:53:16;;;;;;;4.03;2.53;;;5.80;99.90;;;;;;5059019;28;20515;-78
2022/01/01 02:55:45;;;;;;;4.63;2.90;;;5.80;99.90;;;;;;5056028;28;20178;-78
2022/01/01 02:58:11;;;;;;;5.73;2.97;;;5.70;99.90;;;;;;5055850;28;21036;-78
2022/01/01 03:00:38;;;;;;;4.53;2.73;;;5.70;99.90;;;;;;5055609;28;20463;-77
2022/01/01 03:03:04;;;;;;;3.80;3.00;;;5.70;99.90;;;;;;5055892;28;20433;-78
2022/01/01 03:05:31;;;;;;;3.07;2.73;;;;;;;;;;5056392;28;20842;-78
2022/01/01 03:07:57;;;;;;;4.00;3.00;;;5.70;99.90;;;;;;5056273;28;20813;-77
2022/01/01 03:10:24;;;;;;;5.83;2.70;;;5.60;99.90;;;;;;5057449;28;20416;-78
2022/01/01 03:12:50;;;;;;;4.53;2.67;;;5.70;99.90;;;;;;5058817;28;20469;-78
2022/01/01 03:15:15;;;;;;;3.70;2.93;;;5.70;99.90;;;;;;5056635;28;20424;-78
2022/01/01 03:17:41;;;;;;;3.67;3.17;;;5.70;99.90;;;;;;5055965;28;20208;-79
2022/01/01 03:20:08;;;;;;;4.73;3.40;;;5.90;99.90;;;;;;5057359;28;20173;-79
2022/01/01 03:22:33;;;;;;;3.83;3.07;;;5.90;99.90;;;;;;5057103;28;20227;-78
2022/01/01 03:24:59;;;;;;;4.70;3.40;;;;;;;;;;5061851;28;20719;-79
2022/01/01 03:27:25;;;;;;;4.67;3.03;;;6.00;99.90;;;;;;5069457;28;20193;-78
2022/01/01 03:29:51;;;;;;;4.53;3.50;;;5.90;99.90;;;;;;5066829;28;20406;-78
2022/01/01 03:32:16;;;;;;;5.10;3.23;;;5.80;99.90;;;;;;5064776;28;20255;-79
2022/01/01 03:34:42;;;;;;;4.30;3.17;;;5.70;99.90;;;;;;5066134;28;20224;-79
2022/01/01 03:37:09;;;;;;;8.13;3.43;;;5.70;99.90;;;;;;5064894;28;20205;-79
2022/01/01 03:39:34;;;;;;;3.63;3.30;;;5.60;99.90;;;;;;5064018;28;20415;-78
2022/01/01 03:42:03;;;;;;;11.70;6.60;;;5.40;99.90;;;;;;5066397;28;20854;-78
2022/01/01 03:44:29;;;;;;;15.70;7.43;;;5.40;99.90;;;;;;5064361;28;20177;-78
2022/01/01 03:47:02;;;;;;;19.50;8.10;;;5.30;99.90;;;;;;5064121;28;20442;-78
2022/01/01 03:49:28;;;;;;;26.90;13.33;;;5.20;99.90;;;;;;5055539;28;20196;-78
2022/01/01 03:51:53;;;;;;;23.27;11.03;;;5.20;99.90;;;;;;5055766;28;20823;-78
2022/01/01 03:54:20;;;;;;;18.40;9.33;;;5.10;99.90;;;;;;5057405;28;20582;-78
2022/01/01 03:56:46;;;;;;;30.77;12.80;;;;;;;;;;5055488;28;20182;-79
2022/01/01 03:59:11;;;;;;;23.83;11.93;;;5.00;99.90;;;;;;5056988;28;20412;-78
2022/01/01 04:01:37;;;;;;;26.33;14.00;;;4.90;99.90;;;;;;5056766;28;20559;-78
2022/01/01 04:04:03;;;;;;;26.03;12.37;;;4.90;99.90;;;;;;5055853;28;20173;-78
2022/01/01 04:06:28;;;;;;;29.10;12.83;;;4.70;99.90;;;;;;5056301;28;20680;-78
2022/01/01 04:08:54;;;;;;;20.73;9.60;;;4.70;99.90;;;;;;5055616;28;20185;-78
2022/01/01 04:11:21;;;;;;;14.47;7.83;;;4.70;99.90;;;;;;5055852;28;20189;-78
2022/01/01 04:13:47;;;;;;;15.27;6.90;;;4.70;99.90;;;;;;5057719;28;20646;-78
2022/01/01 04:16:13;;;;;;;12.67;6.53;;;4.60;99.90;;;;;;5058043;28;20181;-78
2022/01/01 04:18:38;;;;;;;23.43;10.87;;;4.60;99.90;;;;;;5059838;28;20212;-78
2022/01/01 04:21:07;;;;;;;45.37;19.70;;;4.60;99.90;;;;;;5063117;28;20287;-78
2022/01/01 04:23:33;;;;;;;23.77;12.30;;;4.50;99.90;;;;;;5075973;28;20169;-78
2022/01/01 04:25:58;;;;;;;59.03;27.13;;;4.50;99.90;;;;;;5076401;28;20400;-78
2022/01/01 04:28:24;;;;;;;55.50;27.17;;;4.50;99.90;;;;;;5065964;28;20205;-78
2022/01/01 04:30:49;;;;;;;36.07;16.43;;;4.50;99.90;;;;;;5058929;28;20177;-78
2022/01/01 04:33:15;;;;;;;14.17;7.27;;;4.40;99.90;;;;;;5059390;28;20184;-78
2022/01/01 04:35:41;;;;;;;13.33;6.80;;;4.40;99.90;;;;;;5060134;28;20201;-78
2022/01/01 04:38:16;;;;;;;21.30;10.90;;;4.40;99.90;;;;;;5059980;28;20220;-78
2022/01/01 04:40:41;;;;;;;18.17;9.90;;;4.30;99.90;;;;;;5058134;28;20420;-78
2022/01/01 04:43:07;;;;;;;21.63;11.77;;;4.20;99.90;;;;;;5059917;28;20431;-78
2022/01/01 04:45:33;;;;;;;23.77;11.20;;;4.30;99.90;;;;;;5059802;28;20177;-78
2022/01/01 04:47:58;;;;;;;22.37;12.03;;;4.20;99.90;;;;;;5059721;28;20193;-78
2022/01/01 04:50:24;;;;;;;17.00;10.17;;;4.30;99.90;;;;;;5059181;28;20609;-78
2022/01/01 04:52:49;;;;;;;10.17;6.17;;;4.20;99.90;;;;;;5058724;28;20201;-78
2022/01/01 04:55:15;;;;;;;27.83;15.53;;;4.10;99.90;;;;;;5058509;28;20260;-78
2022/01/01 04:57:41;;;;;;;12.10;7.57;;;4.10;99.90;;;;;;5057462;28;20276;-78
2022/01/01 05:00:07;;;;;;;18.47;10.60;;;4.00;99.90;;;;;;5064862;28;20645;-78
2022/01/01 05:02:33;;;;;;;40.60;25.07;;;4.00;99.90;;;;;;5060344;28;20209;-78
2022/01/01 05:04:59;;;;;;;38.43;24.30;;;4.00;99.90;;;;;;5061604;28;20419;-77
2022/01/01 05:07:24;;;;;;;25.77;17.20;;;4.00;99.90;;;;;;5065596;28;20194;-79
2022/01/01 05:09:50;;;;;;;28.77;17.73;;;4.00;99.90;;;;;;5062274;28;20260;-77
2022/01/01 05:12:15;;;;;;;15.13;9.57;;;4.00;99.90;;;;;;5058793;28;20185;-78
2022/01/01 05:14:41;;;;;;;7.77;6.07;;;4.00;99.90;;;;;;5057614;28;20188;-78
2022/01/01 05:17:07;;;;;;;9.80;6.03;;;4.00;99.90;;;;;;5058107;28;20197;-79
2022/01/01 05:19:33;;;;;;;6.67;4.53;;;4.00;99.90;;;;;;5058210;28;20177;-78
2022/01/01 05:21:58;;;;;;;5.17;3.97;;;4.00;99.90;;;;;;5059126;28;20213;-78
2022/01/01 05:24:24;;;;;;;8.53;4.97;;;3.90;99.90;;;;;;5058600;28;20195;-78
2022/01/01 05:26:49;;;;;;;6.03;5.30;;;4.00;99.90;;;;;;5057857;28;20566;-78
2022/01/01 05:29:15;;;;;;;3.70;3.30;;;4.00;99.90;;;;;;5058796;28;20174;-78
2022/01/01 05:31:41;;;;;;;5.63;4.07;;;4.10;99.90;;;;;;5058186;28;20255;-79
2022/01/01 05:34:07;;;;;;;5.73;4.03;;;4.30;99.90;;;;;;5057904;28;20272;-78
2022/01/01 05:36:33;;;;;;;4.57;3.40;;;4.40;99.90;;;;;;5059759;28;20177;-78
2022/01/01 05:38:59;;;;;;;6.80;4.43;;;4.40;99.90;;;;;;5058510;28;20192;-78
2022/01/01 05:41:25;;;;;;;6.57;3.80;;;4.50;99.90;;;;;;5057781;28;20456;-78
2022/01/01 05:43:50;;;;;;;5.83;4.30;;;4.40;99.90;;;;;;5059012;28;20178;-78
2022/01/01 05:46:16;;;;;;;5.37;3.80;;;4.40;99.90;;;;;;5057327;28;20207;-78
2022/01/01 05:48:42;;;;;;;7.83;4.73;;;4.50;99.90;;;;;;5059296;28;20258;-79
2022/01/01 05:51:08;;;;;;;6.80;4.50;;;4.40;99.90;;;;;;5058965;28;20177;-78
2022/01/01 05:53:34;;;;;;;5.90;4.10;;;4.50;99.90;;;;;;5059207;28;20173;-79
2022/01/01 05:56:00;;;;;;;4.43;3.43;;;4.50;99.90;;;;;;5057960;28;20268;-78
2022/01/01 05:58:25;;;;;;;6.60;4.53;;;4.50;99.90;;;;;;5058850;28;20455;-78
2022/01/01 06:00:51;;;;;;;8.97;4.10;;;4.50;99.90;;;;;;5057631;28;20220;-78
2022/01/01 06:03:18;;;;;;;7.63;5.20;;;4.40;99.90;;;;;;5057610;28;20276;-78
2022/01/01 06:05:44;;;;;;;8.90;4.97;;;4.30;99.90;;;;;;5060241;28;20245;-78
2022/01/01 06:08:09;;;;;;;8.07;5.10;;;4.10;99.90;;;;;;5061801;28;20427;-78
2022/01/01 06:10:35;;;;;;;6.60;4.03;;;4.10;99.90;;;;;;5058266;28;20751;-78
2022/01/01 06:13:06;;;;;;;6.57;4.47;;;4.10;99.90;;;;;;5058848;28;20219;-78
2022/01/01 06:15:32;;;;;;;10.70;4.13;;;4.10;99.90;;;;;;5061086;28;20241;-78
2022/01/01 06:17:57;;;;;;;5.53;4.00;;;4.00;99.90;;;;;;5061423;28;20476;-78
2022/01/01 06:20:23;;;;;;;6.37;4.43;;;4.00;99.90;;;;;;5058654;28;20264;-79
2022/01/01 06:22:49;;;;;;;7.50;4.00;;;4.00;99.90;;;;;;5059844;28;20287;-78
2022/01/01 06:25:15;;;;;;;4.60;3.83;;;4.00;99.90;;;;;;5056798;28;20209;-78
2022/01/01 06:27:41;;;;;;;5.20;3.80;;;3.90;99.90;;;;;;5057971;28;20440;-78
2022/01/01 06:30:07;;;;;;;5.73;4.07;;;3.90;99.90;;;;;;5057580;28;20499;-78
2022/01/01 06:32:33;;;;;;;7.40;4.13;;;3.90;99.90;;;;;;5056250;28;20177;-78
2022/01/01 06:34:59;;;;;;;3.97;3.30;;;3.90;99.90;;;;;;5058151;28;20408;-78
2022/01/01 06:37:25;;;;;;;5.17;3.30;;;3.90;99.90;;;;;;5057660;28;20201;-78
2022/01/01 06:39:51;;;;;;;4.97;3.57;;;4.00;99.90;;;;;;5058004;28;20889;-78
2022/01/01 06:42:16;;;;;;;5.33;4.03;;;3.90;99.90;;;;;;5055092;28;20462;-78
2022/01/01 06:44:42;;;;;;;4.13;3.57;;;4.00;99.90;;;;;;5056241;28;20177;-78
2022/01/01 06:47:09;;;;;;;4.70;3.60;;;4.00;99.90;;;;;;5057500;28;20190;-78
2022/01/01 06:49:34;;;;;;;4.63;3.23;;;4.00;99.90;;;;;;5055747;28;20260;-78
2022/01/01 06:52:00;;;;;;;3.73;3.03;;;;;;;;;;5057047;28;20448;-78
2022/01/01 06:54:26;;;;;;;6.23;3.37;;;3.90;99.90;;;;;;5055927;28;20177;-78
2022/01/01 06:56:52;;;;;;;4.47;3.43;;;3.90;99.90;;;;;;5055701;28;20486;-78
2022/01/01 06:59:17;;;;;;;4.50;3.43;;;3.90;99.90;;;;;;5055617;28;20212;-78
2022/01/01 07:01:43;;;;;;;4.43;3.23;;;4.10;99.90;;;;;;5057187;28;20209;-78
2022/01/01 07:04:09;;;;;;;4.40;3.43;;;3.90;99.90;;;;;;5055678;28;20185;-78
2022/01/01 07:06:34;;;;;;;5.20;3.80;;;3.80;99.90;;;;;;5056794;28;20178;-78
2022/01/01 07:09:01;;;;;;;4.40;3.33;;;3.80;99.90;;;;;;5056448;28;20170;-78
2022/01/01 07:11:26;;;;;;;6.33;3.73;;;3.80;99.90;;;;;;5056424;28;20216;-78
2022/01/01 07:13:53;;;;;;;4.40;3.40;;;3.80;99.90;;;;;;5061514;28;20408;-78
2022/01/01 07:16:20;;;;;;;5.17;3.77;;;3.70;99.90;;;;;;5057192;28;20212;-78
2022/01/01 07:18:46;;;;;;;7.03;3.80;;;3.70;99.90;;;;;;5057367;28;20913;-78
2022/01/01 07:21:11;;;;;;;8.37;3.63;;;3.70;99.90;;;;;;5057570;28;20463;-77
2022/01/01 07:23:37;;;;;;;6.67;3.87;;;3.60;99.90;;;;;;5057692;28;20182;-78
2022/01/01 07:26:03;;;;;;;4.73;3.27;;;3.60;99.90;;;;;;5056859;28;20173;-78
2022/01/01 07:28:29;;;;;;;5.37;3.80;;;;;;;;;;5058353;28;20572;-78
2022/01/01 07:30:54;;;;;;;7.63;3.97;;;3.70;99.90;;;;;;5059213;28;20508;-78
2022/01/01 07:33:20;;;;;;;4.53;3.47;;;3.80;99.90;;;;;;5058633;28;20199;-78
2022/01/01 07:35:45;;;;;;;4.03;3.00;;;3.80;99.90;;;;;;5059399;28;20222;-79
2022/01/01 07:38:11;;;;;;;4.23;3.10;;;3.80;99.90;;;;;;5054670;28;20232;-78
2022/01/01 07:40:39;;;;;;;6.97;3.27;;;3.80;99.90;;;;;;5056624;28;20252;-78
2022/01/01 07:43:16;;;;;;;4.03;3.13;;;3.80;99.90;;;;;;5055404;28;20184;-78
2022/01/01 07:45:43;;;;;;;6.00;3.30;;;3.90;99.90;;;;;;5054835;28;20486;-78
2022/01/01 07:48:09;;;;;;;8.83;3.70;;;3.90;99.90;;;;;;5055200;28;20858;-79
2022/01/01 07:50:35;;;;;;;5.23;3.37;;;4.00;99.90;;;;;;5055806;28;20408;-78
2022/01/01 07:53:02;;;;;;;6.20;3.43;;;4.00;99.90;;;;;;5057034;28;20412;-78
2022/01/01 07:55:27;;;;;;;6.83;3.43;;;4.10;99.90;;;;;;5055911;28;20399;-78
2022/01/01 07:57:53;;;;;;;3.87;2.70;;;4.20;99.90;;;;;;5056216;28;20478;-78
2022/01/01 08:00:19;;;;;;;5.50;3.83;;;4.20;99.90;;;;;;5055147;28;20193;-78
2022/01/01 08:02:47;;;;;;;5.57;3.47;;;4.20;99.90;;;;;;5061097;28;20205;-78
2022/01/01 08:05:16;;;;;;;5.43;3.40;;;4.10;99.90;;;;;;5059222;28;20411;-78
2022/01/01 08:07:42;;;;;;;5.47;3.83;;;4.20;99.90;;;;;;5057268;28;20523;-79
2022/01/01 08:10:08;;;;;;;5.27;3.50;;;4.20;99.90;;;;;;5055836;28;20909;-78
2022/01/01 08:12:34;;;;;;;5.03;3.47;;;4.20;99.90;;;;;;5055411;28;20181;-79
2022/01/01 08:15:00;;;;;;;4.63;2.90;;;;;;;;;;5056542;28;20416;-79
2022/01/01 08:17:26;;;;;;;6.70;3.77;;;4.50;99.90;;;;;;5055613;28;20442;-78
2022/01/01 08:19:52;;;;;;;4.33;3.00;;;4.50;99.90;;;;;;5054671;28;20424;-77
2022/01/01 08:22:18;;;;;;;4.00;3.23;;;4.70;99.90;;;;;;5053472;28;20193;-78
2022/01/01 08:24:43;;;;;;;4.50;3.03;;;5.20;99.90;;;;;;5053477;28;20255;-78
2022/01/01 08:27:09;;;;;;;5.90;3.57;;;6.00;99.90;;;;;;5053971;28;20197;-78
2022/01/01 08:29:35;;;;;;;5.33;3.40;;;6.20;99.90;;;;;;5055392;28;20191;-79
2022/01/01 08:32:01;;;;;;;4.87;3.20;;;6.50;99.90;;;;;;5056488;28;20178;-78
2022/01/01 08:34:27;;;;;;;6.37;4.00;;;6.70;99.90;;;;;;5056248;28;20188;-79
2022/01/01 08:36:52;;;;;;;5.90;3.87;;;6.70;99.90;;;;;;5056539;28;20678;-78
2022/01/01 08:39:19;;;;;;;7.10;4.30;;;7.10;99.90;;;;;;5071615;28;20230;-78
2022/01/01 08:41:46;;;;;;;4.07;3.47;;;7.20;99.90;;;;;;5073729;28;20197;-79
2022/01/01 08:44:12;;;;;;;5.83;3.93;;;7.20;99.90;;;;;;5075907;28;20203;-79
2022/01/01 08:46:38;;;;;;;4.67;3.10;;;7.40;99.90;;;;;;5075063;28;20178;-79
2022/01/01 08:49:05;;;;;;;5.50;3.70;;;7.60;99.90;;;;;;5074700;28;20173;-80
2022/01/01 08:51:33;;;;;;;4.73;3.33;;;7.90;99.90;;;;;;5077064;28;20185;-79
2022/01/01 08:53:58;;;;;;;5.80;4.07;;;8.20;99.90;;;;;;5075502;28;20173;-78
2022/01/01 08:56:24;;;;;;;4.57;3.33;;;8.30;99.90;;;;;;5074295;28;20654;-79
2022/01/01 08:58:50;;;;;;;3.43;2.77;;;8.20;99.90;;;;;;5074031;28;20207;-79
2022/01/01 09:01:16;;;;;;;3.67;2.50;;;8.30;99.90;;;;;;5074879;28;20279;-78
2022/01/01 09:03:42;;;;;;;3.77;2.50;;;8.40;99.90;;;;;;5075928;28;20237;-79
2022/01/01 09:06:09;;;;;;;3.67;2.67;;;8.50;99.90;;;;;;5081475;28;20191;-80
2022/01/01 09:08:38;;;;;;;4.80;2.60;;;8.60;99.90;;;;;;5080453;28;20227;-80
2022/01/01 09:11:04;;;;;;;3.30;2.50;;;8.60;99.90;;;;;;5081814;28;20184;-80
2022/01/01 09:13:30;;;;;;;2.90;2.50;;;8.90;99.90;;;;;;5080564;28;20231;-80
2022/01/01 09:15:56;;;;;;;3.17;2.30;;;9.10;99.90;;;;;;5080346;28;20173;-79
2022/01/01 09:18:21;;;;;;;4.00;2.67;;;9.20;99.90;;;;;;5085281;28;20197;-80
2022/01/01 09:20:48;;;;;;;2.57;2.17;;;9.60;99.90;;;;;;5081744;28;20240;-80
2022/01/01 09:23:14;;;;;;;3.70;2.50;;;9.90;99.90;;;;;;5083047;28;20189;-80
2022/01/01 09:25:40;;;;;;;3.40;2.57;;;10.30;99.90;;;;;;5082500;28;20199;-80
2022/01/01 09:28:06;;;;;;;3.03;2.40;;;10.60;99.90;;;;;;5083077;28;20293;-80
2022/01/01 09:30:31;;;;;;;2.73;2.30;;;10.80;99.90;;;;;;5081876;28;20216;-81
2022/01/01 09:32:57;;;;;;;2.70;2.13;;;11.00;99.90;;;;;;5082055;28;20181;-81
2022/01/01 09:35:23;;;;;;;3.50;2.90;;;11.20;99.90;;;;;;5080961;28;20265;-83
2022/01/01 09:37:48;;;;;;;4.33;3.03;;;11.20;99.90;;;;;;5080694;28;20723;-83
2022/01/01 09:40:14;;;;;;;2.80;2.53;;;11.00;99.90;;;;;;5082661;28;20174;-81
2022/01/01 09:42:40;;;;;;;3.47;2.80;;;10.80;99.90;;;;;;5081739;28;20201;-80
2022/01/01 09:45:07;;;;;;;4.20;2.53;;;10.60;99.90;;;;;;5082335;28;20174;-80
2022/01/01 09:47:33;;;;;;;2.73;2.40;;;10.50;99.90;;;;;;5084711;28;20266;-80
2022/01/01 09:49:59;;;;;;;3.47;2.33;;;10.70;99.90;;;;;;5084550;28;20266;-81
2022/01/01 09:52:25;;;;;;;3.60;2.93;;;10.90;99.90;;;;;;5087497;28;20181;-81
2022/01/01 09:54:53;;;;;;;3.30;2.53;;;11.30;99.90;;;;;;5086471;28;20179;-80
2022/01/01 09:57:18;;;;;;;2.53;2.27;;;11.60;99.90;;;;;;5083049;28;20194;-80
2022/01/01 09:59:44;;;;;;;3.57;2.50;;;12.10;99.90;;;;;;5082248;28;20183;-80
2022/01/01 10:02:09;;;;;;;2.63;2.43;;;12.20;99.90;;;;;;5081810;28;20300;-81
2022/01/01 10:04:48;;;;;;;3.33;2.43;;;12.70;99.90;;;;;;5083644;28;20257;-80
2022/01/01 10:07:14;;;;;;;2.70;2.30;;;12.80;99.90;;;;;;5083169;28;20190;-80
2022/01/01 10:09:40;;;;;;;3.00;2.33;;;13.00;99.90;;;;;;5087723;28;20199;-79
2022/01/01 10:12:10;;;;;;;2.50;2.03;;;13.30;99.90;;;;;;5083180;28;20187;-79
2022/01/01 10:14:44;;;;;;;3.83;2.67;;;13.50;99.90;;;;;;5080949;28;20179;-80
2022/01/01 10:17:23;;;;;;;4.00;2.80;;;14.10;99.90;;;;;;5079678;28;20202;-79
2022/01/01 10:19:52;;;;;;;4.50;2.63;;;14.60;99.90;;;;;;5080807;28;20164;-80
2022/01/01 10:22:20;;;;;;;2.70;2.50;;;14.70;98.80;;;;;;5079032;28;20212;-81
2022/01/01 10:27:42;;;;;;;2.03;1.80;;;15.20;95.30;;;;;;5080092;28;20227;-80
2022/01/01 10:30:16;;;;;;;2.60;2.00;;;15.10;95.10;;;;;;5077124;28;20209;-79
2022/01/01 10:32:59;;;;;;;3.13;2.00;;;15.50;95.90;;;;;;5078007;28;20575;-80
2022/01/01 10:35:25;;;;;;;2.00;1.80;;;15.90;94.30;;;;;;5076410;28;20181;-80
2022/01/01 10:37:51;;;;;;;2.30;1.93;;;16.10;94.50;;;;;;5074607;28;20268;-79
2022/01/01 10:40:27;;;;;;;2.13;1.70;;;16.40;92.80;;;;;;5076251;28;20184;-80
2022/01/01 10:42:52;;;;;;;2.00;1.63;;;16.40;92.90;;;;;;5079077;28;20217;-81
2022/01/01 10:45:41;;;;;;;2.10;1.30;;;16.40;90.80;;;;;;5079941;28;20181;-80
2022/01/01 10:48:23;;;;;;;2.13;1.63;;;16.50;90.50;;;;;;5077704;28;20200;-80
2022/01/01 10:50:51;;;;;;;1.80;1.60;;;16.60;91.90;;;;;;5077618;28;20185;-80
2022/01/01 10:53:23;;;;;;;2.33;1.50;;;16.90;89.80;;;;;;5077653;28;20189;-80
2022/01/01 10:55:51;;;;;;;2.43;1.50;;;17.10;88.70;;;;;;5078697;28;20334;-80
2022/01/01 10:58:26;;;;;;;1.93;1.67;;;17.10;87.00;;;;;;5076838;28;20237;-81
2022/01/01 11:00:57;;;;;;;1.80;1.40;;;17.10;87.90;;;;;;5077163;28;20187;-81
2022/01/01 11:03:24;;;;;;;2.60;1.20;;;17.40;91.70;;;;;;5079886;28;20170;-80
2022/01/01 11:06:02;;;;;;;4.17;1.53;;;17.60;86.50;;;;;;5078944;28;20186;-81
2022/01/01 11:08:28;;;;;;;7.33;2.00;;;17.70;87.50;;;;;;5078823;28;20207;-81
2022/01/01 11:10:54;;;;;;;2.10;1.60;;;17.90;89.30;;;;;;5078607;28;20190;-81
2022/01/01 11:13:20;;;;;;;3.43;1.50;;;17.90;82.30;;;;;;5079842;28;20191;-81
2022/01/01 11:15:46;;;;;;;3.47;1.70;;;18.20;81.20;;;;;;5080014;28;20190;-81
2022/01/01 11:18:12;;;;;;;2.00;1.80;;;18.50;85.70;;;;;;5079435;28;20224;-81
2022/01/01 11:20:39;;;;;;;2.33;2.00;;;18.60;83.50;;;;;;5078535;28;20187;-81
2022/01/01 11:23:08;;;;;;;1.57;1.40;;;18.50;79.80;;;;;;5079090;28;20674;-81
2022/01/01 11:25:35;;;;;;;2.07;1.63;;;18.40;81.60;;;;;;5080408;28;20176;-81
2022/01/01 11:28:02;;;;;;;4.03;1.73;;;18.30;82.90;;;;;;5078969;28;20207;-82
2022/01/01 11:30:30;;;;;;;1.70;1.60;;;18.40;83.50;;;;;;5079790;28;20176;-80
2022/01/01 11:33:19;;;;;;;2.47;1.73;;;18.70;82.70;;;;;;5079646;28;20229;-80
2022/01/01 11:35:51;;;;;;;1.97;1.73;;;18.60;78.70;;;;;;5078347;28;20239;-80
2022/01/01 11:38:18;;;;;;;1.70;1.50;;;18.20;80.00;;;;;;5079772;28;20204;-80
2022/01/01 11:41:08;;;;;;;1.80;1.50;;;18.00;79.10;;;;;;5078970;28;20176;-80
2022/01/01 11:43:53;;;;;;;1.60;1.50;;;18.40;81.70;;;;;;5080715;28;20201;-80
2022/01/01 11:46:22;;;;;;;1.60;1.50;;;18.50;77.60;;;;;;5080279;28;20595;-82
2022/01/01 11:48:49;;;;;;;1.67;1.57;;;18.90;77.30;;;;;;5081449;28;20192;-80
2022/01/01 11:51:36;;;;;;;2.60;1.27;;;19.30;76.50;;;;;;5079789;28;20513;-82
2022/01/01 11:54:03;;;;;;;2.23;1.77;;;19.30;77.00;;;;;;5079236;28;20172;-80
2022/01/01 11:56:52;;;;;;;4.43;2.57;;;19.60;75.80;;;;;;5082620;28;20173;-80
2022/01/01 11:59:21;;;;;;;3.37;2.20;;;19.90;76.20;;;;;;5079780;28;20172;-80
2022/01/01 12:01:52;;;;;;;1.60;1.50;;;19.80;72.10;;;;;;5076054;28;20208;-79
2022/01/01 12:04:31;;;;;;;4.47;2.23;;;19.70;72.20;;;;;;5081429;28;20172;-80
2022/01/01 12:07:11;;;;;;;2.27;1.80;;;19.70;72.40;;;;;;5078900;28;20694;-81
2022/01/01 12:10:02;;;;;;;1.53;1.40;;;19.50;70.70;;;;;;5078530;28;20169;-81
2022/01/01 12:13:06;;;;;;;1.50;1.40;;;18.80;73.60;;;;;;5079621;28;20264;-81
2022/01/01 12:15:43;;;;;;;2.03;1.90;;;17.90;77.90;;;;;;5077983;28;20180;-80
2022/01/01 12:18:13;;;;;;;2.40;1.93;;;16.90;81.30;;;;;;5078004;28;20197;-80
2022/01/01 12:20:46;;;;;;;2.23;1.67;;;16.20;81.70;;;;;;5078340;28;20531;-80
2022/01/01 12:23:27;;;;;;;2.13;1.93;;;15.50;83.00;;;;;;5078503;28;20197;-80
2022/01/01 12:25:54;;;;;;;2.17;1.97;;;14.90;87.00;;;;;;5077228;28;20171;-80
2022/01/01 12:28:48;;;;;;;3.87;3.10;;;14.50;87.70;;;;;;5080210;28;20200;-80
2022/01/01 12:31:20;;;;;;;2.77;2.20;;;14.20;89.60;;;;;;5079152;28;20181;-80
2022/01/01 12:33:55;;;;;;;4.20;3.40;;;14.00;89.80;;;;;;5080191;28;20176;-80
2022/01/01 12:36:31;;;;;;;5.97;2.90;;;13.80;90.50;;;;;;5078501;28;20165;-80
2022/01/01 12:39:04;;;;;;;3.43;2.60;;;13.80;91.20;;;;;;5078837;28;20169;-80
2022/01/01 12:41:41;;;;;;;2.20;1.70;;;13.70;91.00;;;;;;5079589;28;20605;-80
2022/01/01 12:44:17;;;;;;;2.00;1.70;;;13.70;90.80;;;;;;5079192;28;20165;-80
2022/01/01 12:46:51;;;;;;;4.17;2.00;;;13.60;91.00;;;;;;5079883;28;20538;-80
2022/01/01 12:49:17;;;;;;;4.97;2.03;;;13.40;90.60;;;;;;5079547;28;20247;-80
2022/01/01 12:51:43;;;;;;;2.73;1.60;;;13.20;91.60;;;;;;5079436;28;20659;-81
2022/01/01 12:54:10;;;;;;;2.13;1.70;;;13.20;91.70;;;;;;5080125;28;20206;-80
2022/01/01 12:56:38;;;;;;;3.83;2.23;;;13.10;92.70;;;;;;5078612;28;20202;-79
2022/01/01 12:59:10;;;;;;;3.10;2.00;;;13.10;93.10;;;;;;5080284;28;20178;-80
2022/01/01 13:01:40;;;;;;;2.57;1.80;;;13.20;93.30;;;;;;5079446;28;20206;-80
2022/01/01 13:04:07;;;;;;;1.67;1.57;;;13.20;93.60;;;;;;5078265;28;20200;-79
2022/01/01 13:06:42;;;;;;;2.43;1.80;;;13.10;94.10;;;;;;5078320;28;20180;-79
2022/01/01 13:09:10;;;;;;;2.80;1.73;;;13.10;94.50;;;;;;5083078;28;20177;-79